createdAt,value
2022-11-28T00:04:07.384Z,9.8
2022-11-28T00:06:09.447Z,8.7
2022-11-28T00:12:15.658Z,9.6
2022-11-28T00:14:17.720Z,9.7
2022-11-28T00:16:19.863Z,9.5
2022-11-28T00:18:25.145Z,10.6
2022-11-28T00:20:27.211Z,9.9
2022-11-28T00:22:29.274Z,8.9
2022-11-28T00:24:31.359Z,11.2
2022-11-28T00:26:33.472Z,9.9
2022-11-28T00:28:35.518Z,8.9
2022-11-28T00:30:37.614Z,9.9
2022-11-28T00:32:42.997Z,10.3
2022-11-28T00:34:44.985Z,9.7
2022-11-28T00:36:47.068Z,11
2022-11-28T00:39:15.982Z,9.6
2022-11-28T00:41:18.023Z,9.3
2022-11-28T00:43:20.128Z,9.6
2022-11-28T00:45:25.473Z,9.3
2022-11-28T00:47:27.489Z,9.4
2022-11-28T00:51:31.669Z,10.9
2022-11-28T00:53:33.782Z,9.1
2022-11-28T00:55:35.837Z,9.6
2022-11-28T00:57:37.935Z,9.2
2022-11-28T00:59:43.216Z,10.8
2022-11-28T01:01:45.379Z,10.6
2022-11-28T01:03:47.417Z,10.3
2022-11-28T01:05:49.501Z,9
2022-11-28T01:07:51.631Z,10.8
2022-11-28T01:11:55.747Z,9.4
2022-11-28T01:14:01.236Z,10.9
2022-11-28T01:16:03.228Z,11
2022-11-28T01:18:05.251Z,10.3
2022-11-28T01:20:07.346Z,12.4
2022-11-28T01:22:09.429Z,10.2
2022-11-28T01:24:11.634Z,12.4
2022-11-28T01:26:13.565Z,11.8
2022-11-28T01:28:18.903Z,12.4
2022-11-28T01:30:20.994Z,11.6
2022-11-28T01:32:23.057Z,13.1
2022-11-28T01:33:25.727Z,12.9
2022-11-28T01:35:27.812Z,12.9
2022-11-28T01:37:29.875Z,12.1
2022-11-28T01:39:31.956Z,12.9
2022-11-28T01:41:37.267Z,14
2022-11-28T01:49:45.614Z,13.3
2022-11-28T01:51:47.669Z,12.6
2022-11-28T01:55:55.079Z,14.1
2022-11-28T01:57:57.179Z,13
2022-11-28T01:59:59.245Z,14.5
2022-11-28T02:06:05.485Z,14
2022-11-28T02:08:07.556Z,14.2
2022-11-28T02:12:14.973Z,15.1
2022-11-28T02:14:17.063Z,12.5
2022-11-28T02:16:19.216Z,13.7
2022-11-28T02:18:21.229Z,13.4
2022-11-28T02:20:23.324Z,13
2022-11-28T02:22:25.400Z,13.5
2022-11-28T02:24:30.710Z,14.1
2022-11-28T02:26:32.815Z,13.9
2022-11-28T02:28:34.908Z,12.7
2022-11-28T02:29:37.545Z,13.9
2022-11-28T02:31:39.678Z,12.8
2022-11-28T02:33:41.710Z,12.3
2022-11-28T02:35:43.805Z,13.5
2022-11-28T02:37:49.134Z,13
2022-11-28T02:43:55.400Z,12.1
2022-11-28T02:45:57.473Z,13.5
2022-11-28T02:47:59.577Z,13.1
2022-11-28T02:50:01.723Z,10.9
2022-11-28T02:52:07.048Z,11.5
2022-11-28T02:54:09.121Z,11.8
2022-11-28T02:56:11.227Z,11
2022-11-28T02:58:13.303Z,11.2
2022-11-28T03:00:17.820Z,11.9
2022-11-28T03:02:17.652Z,11.6
2022-11-28T03:04:19.581Z,11
2022-11-28T03:06:24.921Z,12.5
2022-11-28T03:08:27.006Z,11.8
2022-11-28T03:10:29.077Z,10.9
2022-11-28T03:16:35.445Z,10.3
2022-11-28T03:18:37.456Z,11.1
2022-11-28T03:20:42.769Z,10.6
2022-11-28T03:22:44.880Z,10.1
2022-11-28T03:24:46.965Z,9.9
2022-11-28T03:25:49.623Z,11.3
2022-11-28T03:27:51.701Z,11.7
2022-11-28T03:29:53.812Z,12.6
2022-11-28T03:31:55.969Z,13.4
2022-11-28T03:34:01.210Z,11.1
2022-11-28T03:36:03.310Z,10.5
2022-11-28T03:38:05.389Z,11.5
2022-11-28T03:40:07.527Z,11.9
2022-11-28T03:42:09.579Z,10.1
2022-11-28T03:44:11.693Z,11.6
2022-11-28T03:48:19.110Z,10.8
2022-11-28T03:52:23.291Z,9.8
2022-11-28T03:54:25.378Z,11.5
2022-11-28T03:56:27.502Z,9.8
2022-11-28T03:58:29.605Z,10.8
2022-11-28T04:00:31.690Z,10.4
2022-11-28T04:02:37.135Z,9.9
2022-11-28T04:04:39.119Z,9.2
2022-11-28T04:06:41.214Z,9.5
2022-11-28T04:08:43.341Z,8.9
2022-11-28T04:10:45.426Z,8.5
2022-11-28T04:12:47.548Z,9.1
2022-11-28T04:14:49.645Z,9.1
2022-11-28T04:16:54.985Z,9.3
2022-11-28T04:18:57.088Z,8.9
2022-11-28T04:20:59.176Z,8.5
2022-11-28T04:23:28.040Z,9.2
2022-11-28T04:25:30.179Z,7.8
2022-11-28T04:27:32.261Z,8.6
2022-11-28T04:29:37.572Z,8.3
2022-11-28T04:31:39.790Z,6.2
2022-11-28T04:33:41.800Z,6.7
2022-11-28T04:35:43.923Z,7.2
2022-11-28T04:37:46.016Z,7.4
2022-11-28T04:39:48.130Z,7.3
2022-11-28T04:41:50.239Z,6.5
2022-11-28T04:43:55.546Z,7.8
2022-11-28T04:45:57.742Z,7.5
2022-11-28T04:47:59.782Z,7.8
2022-11-28T04:50:01.893Z,7.6
2022-11-28T04:54:06.097Z,7.8
2022-11-28T05:00:15.991Z,7.8
2022-11-28T05:04:20.253Z,8
2022-11-28T05:06:22.315Z,8.1
2022-11-28T05:08:24.388Z,8.2
2022-11-28T05:10:26.516Z,9.1
2022-11-28T05:12:31.836Z,9.3
2022-11-28T05:14:33.958Z,9.6
2022-11-28T05:16:36.138Z,9.7
2022-11-28T05:17:42.160Z,7.8
2022-11-28T05:19:40.806Z,8.1
2022-11-28T05:25:51.925Z,8.7
2022-11-28T05:29:56.113Z,9.2
2022-11-28T05:31:58.249Z,8.2
2022-11-28T05:34:00.295Z,6.8
2022-11-28T05:36:02.405Z,7.4
2022-11-28T05:40:09.857Z,7
2022-11-28T05:48:18.252Z,7.3
2022-11-28T05:50:20.357Z,6.3
2022-11-28T05:54:27.803Z,7.3
2022-11-28T05:56:29.890Z,8.1
2022-11-28T05:58:31.985Z,6.3
2022-11-28T06:00:34.105Z,7.7
2022-11-28T06:02:36.277Z,7.1
2022-11-28T06:04:38.351Z,6.5
2022-11-28T06:06:40.380Z,6.5
2022-11-28T06:08:45.739Z,6.3
2022-11-28T06:10:47.840Z,5.9
2022-11-28T06:12:49.944Z,6.3
2022-11-28T06:13:52.608Z,6.4
2022-11-28T06:15:54.713Z,6.2
2022-11-28T06:17:56.834Z,6
2022-11-28T06:19:58.945Z,5.6
2022-11-28T06:22:04.274Z,5
2022-11-28T06:24:06.398Z,4.4
2022-11-28T06:26:08.494Z,6
2022-11-28T06:28:10.576Z,4.9
2022-11-28T06:30:12.688Z,5.2
2022-11-28T06:32:18.931Z,5.2
2022-11-28T06:34:16.933Z,5.1
2022-11-28T06:36:22.368Z,4.9
2022-11-28T06:38:24.318Z,5.2
2022-11-28T06:40:26.441Z,4.8
2022-11-28T06:42:28.553Z,5.2
2022-11-28T06:50:40.193Z,5
2022-11-28T06:52:42.312Z,4.7
2022-11-28T06:54:44.422Z,5.3
2022-11-28T06:56:46.519Z,5.1
2022-11-28T06:58:48.643Z,4.8
2022-11-28T07:00:50.775Z,4.5
2022-11-28T07:02:52.899Z,5.3
2022-11-28T07:04:58.186Z,5.6
2022-11-28T07:07:00.341Z,5.4
2022-11-28T07:09:02.440Z,4.5
2022-11-28T07:10:05.143Z,5.7
2022-11-28T07:12:07.255Z,5.2
2022-11-28T07:14:09.339Z,5.8
2022-11-28T07:16:11.484Z,6.3
2022-11-28T07:18:16.791Z,5.2
2022-11-28T07:20:18.877Z,5.5
2022-11-28T07:22:21.011Z,5.1
2022-11-28T07:24:23.111Z,5.8
2022-11-28T07:26:25.203Z,5.5
2022-11-28T07:28:27.321Z,4.8
2022-11-28T07:30:29.446Z,6.1
2022-11-28T07:32:34.763Z,5.9
2022-11-28T07:34:36.872Z,6.9
2022-11-28T07:36:38.975Z,6.5
2022-11-28T07:38:41.073Z,6.1
2022-11-28T07:40:43.176Z,6.5
2022-11-28T07:42:45.288Z,7.4
2022-11-28T07:44:47.419Z,7.6
2022-11-28T07:46:52.973Z,7.4
2022-11-28T07:48:54.857Z,6.5
2022-11-28T07:50:56.946Z,6.8
2022-11-28T07:53:02.884Z,7.1
2022-11-28T07:55:01.172Z,7.3
2022-11-28T07:57:13.460Z,8
2022-11-28T07:59:05.641Z,7.3
2022-11-28T08:01:10.745Z,7.2
2022-11-28T08:03:12.833Z,8.6
2022-11-28T08:05:14.950Z,9.3
2022-11-28T08:11:47.998Z,8.2
2022-11-28T08:13:56.390Z,11.5
2022-11-28T08:15:55.410Z,10.4
2022-11-28T08:17:57.529Z,10.1
2022-11-28T08:19:59.629Z,11
2022-11-28T08:24:03.847Z,9.8
2022-11-28T08:28:11.275Z,11.5
2022-11-28T08:34:17.598Z,11.8
2022-11-28T08:36:19.705Z,9.8
2022-11-28T08:38:21.801Z,11.1
2022-11-28T08:42:29.219Z,10.1
2022-11-28T08:44:31.342Z,11.4
2022-11-28T08:52:39.773Z,10.3
2022-11-28T08:58:49.337Z,11.4
2022-11-28T09:00:51.469Z,10.9
2022-11-28T09:01:54.205Z,11.8
2022-11-28T09:03:56.326Z,11.1
2022-11-28T09:05:58.287Z,11.9
2022-11-28T09:08:00.457Z,10.6
2022-11-28T09:10:05.762Z,12.1
2022-11-28T09:12:07.869Z,10
2022-11-28T09:14:09.974Z,10.4
2022-11-28T09:16:12.087Z,10.5
2022-11-28T09:18:14.166Z,10.1
2022-11-28T09:20:16.286Z,9
2022-11-28T09:22:18.408Z,8.8
2022-11-28T09:24:23.712Z,10.6
2022-11-28T09:26:25.857Z,9.1
2022-11-28T09:28:27.926Z,9
2022-11-28T09:30:30.137Z,11.3
2022-11-28T09:32:32.171Z,10.2
2022-11-28T09:34:34.256Z,9
2022-11-28T09:36:36.366Z,9.6
2022-11-28T09:38:41.745Z,10.2
2022-11-28T09:40:43.851Z,9.1
2022-11-28T09:42:45.979Z,9.3
2022-11-28T09:46:50.191Z,9.5
2022-11-28T09:48:52.274Z,8.6
2022-11-28T09:50:54.391Z,8
2022-11-28T09:52:59.816Z,7.7
2022-11-28T09:55:01.829Z,9.4
2022-11-28T09:57:03.960Z,8.9
2022-11-28T09:58:06.624Z,7.7
2022-11-28T10:00:08.751Z,9.5
2022-11-28T10:02:10.819Z,7.1
2022-11-28T10:04:13.065Z,8.8
2022-11-28T10:08:20.401Z,8.9
2022-11-28T10:10:22.526Z,7.1
2022-11-28T10:16:28.890Z,8.6
2022-11-28T10:18:30.962Z,7.7
2022-11-28T10:26:42.629Z,7.9
2022-11-28T10:28:44.757Z,7.5
2022-11-28T10:30:46.900Z,8.2
2022-11-28T10:32:48.996Z,7.7
2022-11-28T10:41:00.700Z,6.4
2022-11-28T10:43:02.790Z,7.1
2022-11-28T10:47:07.024Z,7
2022-11-28T10:49:12.382Z,6.8
2022-11-28T10:51:14.498Z,7
2022-11-28T10:54:19.294Z,6.5
2022-11-28T10:56:21.416Z,6.8
2022-11-28T10:58:23.552Z,6.7
2022-11-28T11:00:25.658Z,6.7
2022-11-28T11:02:31.017Z,7.9
2022-11-28T11:04:33.225Z,7.3
2022-11-28T11:06:41.733Z,7.6
2022-11-28T11:08:37.397Z,7.8
2022-11-28T11:10:39.503Z,6.7
2022-11-28T11:12:41.638Z,9.3
2022-11-28T11:14:43.779Z,9.7
2022-11-28T11:16:50.683Z,10.4
2022-11-28T11:18:52.774Z,8.9
2022-11-28T11:20:54.903Z,10.4
2022-11-28T11:22:57.049Z,9.4
2022-11-28T11:24:59.171Z,9.6
2022-11-28T11:27:01.296Z,11
2022-11-28T11:29:03.415Z,11.2
2022-11-28T11:31:08.789Z,9.4
2022-11-28T11:33:10.902Z,10.4
2022-11-28T11:35:13.027Z,12.6
2022-11-28T11:43:21.532Z,11.5
2022-11-28T11:45:26.874Z,13.7
2022-11-28T11:52:00.075Z,11.7
2022-11-28T11:54:02.137Z,12.1
2022-11-28T11:56:04.252Z,12.3
2022-11-28T11:58:09.624Z,13.9
2022-11-28T12:00:11.760Z,14.1
2022-11-28T12:02:13.955Z,15.1
2022-11-28T12:04:37.449Z,16.7
2022-11-28T12:06:18.134Z,16.3
2022-11-28T12:08:20.247Z,14.4
2022-11-28T12:10:22.382Z,15.4
2022-11-28T12:12:27.754Z,18.1
2022-11-28T12:14:29.889Z,16.3
2022-11-28T12:16:32.050Z,15.9
2022-11-28T12:18:34.175Z,15.5
2022-11-28T12:20:36.262Z,17.2
2022-11-28T12:22:38.393Z,16.1
2022-11-28T12:24:40.521Z,17.4
2022-11-28T12:26:45.869Z,17.9
2022-11-28T12:28:47.992Z,17.1
2022-11-28T12:30:50.216Z,19.8
2022-11-28T12:32:52.258Z,17
2022-11-28T12:34:54.399Z,19.2
2022-11-28T12:36:56.542Z,18.9
2022-11-28T12:38:58.669Z,17.2
2022-11-28T12:41:04.042Z,18.2
2022-11-28T12:43:06.161Z,19
2022-11-28T12:45:08.296Z,17.5
2022-11-28T12:46:11.078Z,18.5
2022-11-28T12:48:13.105Z,19.9
2022-11-28T12:50:15.244Z,19.8
2022-11-28T12:52:17.341Z,18.2
2022-11-28T12:54:22.705Z,21.2
2022-11-28T12:56:24.833Z,20.7
2022-11-28T12:58:26.987Z,18.9
2022-11-28T13:02:31.370Z,19.8
2022-11-28T13:04:33.363Z,19.8
2022-11-28T13:06:35.541Z,18.5
2022-11-28T13:08:46.462Z,19.6
2022-11-28T13:10:43.024Z,17.3
2022-11-28T13:14:47.566Z,19.3
2022-11-28T13:16:49.479Z,19.7
2022-11-28T13:18:51.527Z,18.8
2022-11-28T13:20:53.647Z,18.2
2022-11-28T13:25:01.126Z,18.3
2022-11-28T13:27:03.568Z,17.3
2022-11-28T13:29:05.690Z,18.5
2022-11-28T13:31:07.902Z,18
2022-11-28T13:33:09.976Z,17.8
2022-11-28T13:35:12.097Z,16.4
2022-11-28T13:39:19.598Z,16.8
2022-11-28T13:41:43.925Z,18.2
2022-11-28T13:44:28.578Z,18.7
2022-11-28T13:46:28.741Z,16.4
2022-11-28T13:48:49.879Z,17.1
2022-11-28T13:50:36.183Z,18.2
2022-11-28T13:52:38.331Z,18.6
2022-11-28T13:56:42.600Z,17
2022-11-28T13:58:44.712Z,21.8
2022-11-28T14:00:46.953Z,18.1
2022-11-28T14:02:49.052Z,16.6
2022-11-28T14:04:54.341Z,19.2
2022-11-28T14:06:56.485Z,18.3
2022-11-28T14:08:58.622Z,17.8
2022-11-28T14:11:00.797Z,17.3
2022-11-28T14:15:06.544Z,16.5
2022-11-28T14:17:07.176Z,17
2022-11-28T14:19:12.542Z,17.3
2022-11-28T14:21:14.670Z,18.5
2022-11-28T14:23:16.799Z,18.5
2022-11-28T14:25:18.928Z,17.2
2022-11-28T14:27:21.063Z,17.1
2022-11-28T14:29:23.213Z,15.9
2022-11-28T14:31:25.396Z,17.3
2022-11-28T14:33:30.695Z,17.5
2022-11-28T14:35:32.830Z,18.5
2022-11-28T14:37:34.968Z,19
2022-11-28T14:38:37.632Z,18
2022-11-28T14:40:39.781Z,17.4
2022-11-28T14:42:59.953Z,18.9
2022-11-28T14:46:49.463Z,20
2022-11-28T14:48:51.615Z,19.6
2022-11-28T14:50:59.369Z,21.1
2022-11-28T14:52:55.882Z,18.1
2022-11-28T14:54:58.027Z,21.6
2022-11-28T14:57:00.430Z,21
2022-11-28T14:59:02.276Z,22.1
2022-11-28T15:01:07.635Z,23.6
2022-11-28T15:03:09.861Z,21.6
2022-11-28T15:05:11.914Z,22.4
2022-11-28T15:07:14.183Z,20.7
2022-11-28T15:09:16.150Z,23.3
2022-11-28T15:11:18.312Z,24.2
2022-11-28T15:13:20.434Z,20.9
2022-11-28T15:15:25.813Z,24.8
2022-11-28T15:21:32.182Z,26.4
2022-11-28T15:23:34.318Z,25.9
2022-11-28T15:25:36.439Z,25
2022-11-28T15:27:38.577Z,25.4
2022-11-28T15:31:46.217Z,26.2
2022-11-28T15:33:48.267Z,25.1
2022-11-28T15:38:19.259Z,28.7
2022-11-28T15:40:21.387Z,27.1
2022-11-28T15:42:26.735Z,29.2
2022-11-28T15:44:28.877Z,30.6
2022-11-28T15:46:31.263Z,28.3
2022-11-28T15:52:37.420Z,27.2
2022-11-28T15:54:39.574Z,28.1
2022-11-28T15:56:44.906Z,26.6
2022-11-28T15:58:47.070Z,28.5
2022-11-28T16:00:49.263Z,26.7
2022-11-28T16:02:51.368Z,27.2
2022-11-28T16:04:53.511Z,24.8
2022-11-28T16:06:55.647Z,25.8
2022-11-28T16:08:57.803Z,26.6
2022-11-28T16:13:05.324Z,27.6
2022-11-28T16:17:09.640Z,26.1
2022-11-28T16:19:11.787Z,22.9
2022-11-28T16:21:13.927Z,26.3
2022-11-28T16:23:16.078Z,28
2022-11-28T16:25:21.443Z,25.7
2022-11-28T16:29:29.346Z,27.1
2022-11-28T16:30:28.419Z,26.1
2022-11-28T16:34:32.718Z,28.2
2022-11-28T16:36:34.867Z,28
2022-11-28T16:38:40.265Z,28.9
2022-11-28T16:42:44.554Z,27.7
2022-11-28T16:46:48.852Z,27.5
2022-11-28T16:48:51.006Z,28.8
2022-11-28T16:50:53.133Z,27.4
2022-11-28T16:55:00.669Z,27.5
2022-11-28T16:57:02.824Z,28.9
2022-11-28T16:59:04.987Z,29.2
2022-11-28T17:01:07.148Z,29.8
2022-11-28T17:03:12.931Z,30.3
2022-11-28T17:07:16.882Z,28.6
2022-11-28T17:13:24.807Z,28.3
2022-11-28T17:15:26.927Z,27.1
2022-11-28T17:19:31.221Z,29.1
2022-11-28T17:21:36.595Z,30.6
2022-11-28T17:23:38.757Z,28.6
2022-11-28T17:26:43.570Z,30.7
2022-11-28T17:28:45.719Z,27.4
2022-11-28T17:30:47.849Z,30.3
2022-11-28T17:32:50.034Z,33.9
2022-11-28T17:36:57.515Z,32.9
2022-11-28T17:39:04.810Z,31.1
2022-11-28T17:41:01.806Z,34.9
2022-11-28T17:45:06.087Z,33.8
2022-11-28T17:47:08.233Z,31.8
2022-11-28T17:49:13.632Z,36.5
2022-11-28T17:51:15.797Z,33.8
2022-11-28T17:53:17.933Z,35.4
2022-11-28T17:55:20.077Z,32.6
2022-11-28T17:59:24.372Z,37.9
2022-11-28T18:01:26.587Z,39.8
2022-11-28T18:03:31.886Z,39.9
2022-11-28T18:05:34.007Z,43.6
2022-11-28T18:07:36.268Z,42.6
2022-11-28T18:09:38.742Z,44.3
2022-11-28T18:11:40.870Z,43.8
2022-11-28T18:13:43.037Z,40.4
2022-11-28T18:15:45.153Z,41.2
2022-11-28T18:17:50.515Z,45.1
2022-11-28T18:19:57.143Z,44.1
2022-11-28T18:21:54.868Z,41.1
2022-11-28T18:22:57.515Z,41.9
2022-11-28T18:24:59.642Z,42.6
2022-11-28T18:39:17.869Z,40.9
2022-11-28T18:47:29.653Z,39.4
2022-11-28T18:49:31.782Z,37.8
2022-11-28T18:53:36.081Z,35
2022-11-28T18:55:38.204Z,36.4
2022-11-28T18:59:51.241Z,39.7
2022-11-28T19:01:47.834Z,40.2
2022-11-28T19:03:49.991Z,37.8
2022-11-28T19:05:52.124Z,36.9
2022-11-28T19:09:56.411Z,36.6
2022-11-28T19:16:06.087Z,37.7
2022-11-28T19:18:08.206Z,39
2022-11-28T19:20:37.068Z,37.9
2022-11-28T19:22:39.218Z,39.1
2022-11-28T19:26:46.708Z,39.8
2022-11-28T19:30:51.021Z,36.6
2022-11-28T19:32:53.170Z,36.8
2022-11-28T19:36:57.405Z,35.1
2022-11-28T19:38:59.567Z,40.7
2022-11-28T19:43:07.036Z,37.5
2022-11-28T19:45:09.175Z,39.2
2022-11-28T19:47:11.282Z,35.9
2022-11-28T19:49:13.460Z,36.8
2022-11-28T19:59:27.339Z,36.7
2022-11-28T20:01:29.570Z,37.9
2022-11-28T20:03:31.585Z,39.1
2022-11-28T20:05:33.693Z,38.5
2022-11-28T20:07:35.862Z,39.5
2022-11-28T20:09:41.431Z,43.4
2022-11-28T20:11:43.298Z,40
2022-11-28T20:13:45.407Z,39.2
2022-11-28T20:14:48.086Z,42.1
2022-11-28T20:16:50.271Z,40.5
2022-11-28T20:18:52.341Z,41.9
2022-11-28T20:20:54.439Z,40.8
2022-11-28T20:22:59.797Z,45.8
2022-11-28T20:25:01.941Z,43.2
2022-11-28T20:31:08.285Z,45.4
2022-11-28T20:33:10.419Z,44.6
2022-11-28T20:39:19.978Z,40.2
2022-11-28T20:41:22.145Z,41.9
2022-11-28T20:43:24.258Z,43.5
2022-11-28T20:45:26.464Z,38.6
2022-11-28T21:03:48.710Z,38.7
2022-11-28T21:09:58.331Z,38
2022-11-28T21:11:01.029Z,34.6
2022-11-28T21:13:03.134Z,32
2022-11-28T21:15:05.243Z,35
2022-11-28T21:17:07.370Z,33.4
2022-11-28T21:19:12.752Z,34
2022-11-28T21:21:14.859Z,33
2022-11-28T21:23:16.996Z,33.3
2022-11-28T21:25:19.400Z,31.7
2022-11-28T21:27:21.229Z,31.2
2022-11-28T21:29:23.359Z,30.9
2022-11-28T21:31:25.535Z,37.6
2022-11-28T21:33:30.847Z,33.3
2022-11-28T21:39:37.216Z,33.3
2022-11-28T21:41:39.364Z,35
2022-11-28T21:45:43.600Z,31.8
2022-11-28T21:47:48.947Z,34.3
2022-11-28T21:49:51.053Z,30.6
2022-11-28T21:51:53.189Z,30.7
2022-11-28T21:53:55.320Z,31.2
2022-11-28T21:55:57.429Z,30.1
2022-11-28T21:57:59.577Z,31.2
2022-11-28T22:00:01.690Z,31
2022-11-28T22:02:11.406Z,29.9
2022-11-28T22:04:09.176Z,30.7
2022-11-28T22:06:11.286Z,30.8
2022-11-28T22:09:16.076Z,31.3
2022-11-28T22:11:18.211Z,29.8
2022-11-28T22:13:20.351Z,29.6
2022-11-28T22:15:25.874Z,30.7
2022-11-28T22:17:27.780Z,30.4
2022-11-28T22:19:29.921Z,32.5
2022-11-28T22:21:52.027Z,34.6
2022-11-28T22:23:34.156Z,30.5
2022-11-28T22:25:36.426Z,28
2022-11-28T22:27:38.450Z,27.2
2022-11-28T22:29:43.796Z,28.3
2022-11-28T22:31:45.941Z,28.2
2022-11-28T22:33:48.036Z,30.8
2022-11-28T22:35:50.143Z,30
2022-11-28T22:37:52.284Z,26.4
2022-11-28T22:39:54.418Z,28.1
2022-11-28T22:41:56.515Z,27.6
2022-11-28T22:44:01.863Z,30.1
2022-11-28T22:46:04.059Z,29.1
2022-11-28T22:48:06.100Z,27.2
2022-11-28T22:50:08.237Z,30.4
2022-11-28T22:56:14.576Z,28.5
2022-11-28T22:58:19.908Z,29
2022-11-28T23:04:54.491Z,26.5
2022-11-28T23:06:56.619Z,27.1
2022-11-28T23:08:58.740Z,26.3
2022-11-28T23:11:04.122Z,28.1
2022-11-28T23:15:08.347Z,28
2022-11-28T23:17:10.464Z,26.3
2022-11-28T23:19:12.574Z,23.7
2022-11-28T23:21:14.669Z,27.2
2022-11-28T23:23:16.814Z,24.9
2022-11-28T23:25:22.163Z,24.9
2022-11-28T23:27:24.266Z,27.4
2022-11-28T23:29:26.382Z,22.9
2022-11-28T23:31:28.556Z,27.7
2022-11-28T23:33:30.635Z,24.9
2022-11-28T23:35:32.894Z,26.4
2022-11-28T23:37:34.845Z,26.2
2022-11-28T23:39:40.221Z,26.5
2022-11-28T23:41:42.314Z,30.7
2022-11-28T23:43:44.439Z,30.6
2022-11-28T23:45:46.606Z,27.5
2022-11-28T23:47:48.667Z,30
2022-11-28T23:49:50.769Z,27.9
2022-11-28T23:51:52.915Z,30.2
2022-11-28T23:53:58.231Z,29.5
2022-11-28T23:56:00.367Z,30.8
2022-11-28T23:58:02.475Z,26.7
2022-11-28T23:59:05.169Z,28.2
